Time;durP1;ratioP1;P1;durP2;ratioP2;P2;SDS_P1;SDS_P2;PMS_P1;PMS_P2;Temp;Humidity;BMP_temperature;BMP_pressure;BME280_temperature;BME280_humidity;BME280_pressure;Samples;Min_cycle;Max_cycle;Signal;HPM_P1;HPM_P2
2022/06/16 00:00:07;;;;;;;13.30;5.03;;;;;;;;;;6277463;22;20053;-70
2022/06/16 00:02:32;;;;;;;9.93;5.10;;;;;;;;;;6277688;22;19995;-69
2022/06/16 00:04:57;;;;;;;11.32;4.75;;;;;;;;;;6277685;22;19999;-69
2022/06/16 00:07:23;;;;;;;10.48;5.70;;;;;;;;;;6277602;22;20011;-70
2022/06/16 00:09:48;;;;;;;11.75;5.32;;;;;;;;;;6277670;22;20057;-69
2022/06/16 00:12:14;;;;;;;13.90;5.53;;;;;;;;;;6277713;22;20105;-69
2022/06/16 00:14:39;;;;;;;15.73;5.53;;;;;;;;;;6277452;22;20007;-69
2022/06/16 00:17:04;;;;;;;14.77;5.60;;;;;;;;;;6277680;22;19995;-70
2022/06/16 00:19:30;;;;;;;11.00;5.30;;;;;;;;;;6277530;22;20479;-69
2022/06/16 00:21:55;;;;;;;15.10;5.18;;;;;;;;;;6277347;22;19999;-69
2022/06/16 00:24:26;;;;;;;8.82;4.65;;;;;;;;;;6277267;22;20286;-69
2022/06/16 00:26:51;;;;;;;9.60;4.38;;;;;;;;;;6277156;22;20008;-69
2022/06/16 00:29:17;;;;;;;12.32;5.05;;;;;;;;;;6277390;22;20004;-70
2022/06/16 00:31:42;;;;;;;10.02;4.78;;;;;;;;;;6277055;22;19992;-69
2022/06/16 00:34:07;;;;;;;12.43;4.80;;;;;;;;;;6277499;22;20293;-69
2022/06/16 00:36:34;;;;;;;7.43;5.00;;;;;;;;;;6277527;22;20485;-70
2022/06/16 00:38:59;;;;;;;10.90;5.47;;;;;;;;;;6277355;22;20012;-69
2022/06/16 00:41:24;;;;;;;11.57;4.65;;;;;;;;;;6277602;22;20018;-70
2022/06/16 00:43:50;;;;;;;10.48;4.85;;;;;;;;;;6276889;22;20035;-70
2022/06/16 00:46:17;;;;;;;13.63;4.88;;;;;;;;;;6277207;22;20010;-70
2022/06/16 00:48:47;;;;;;;9.73;4.93;;;;;;;;;;6277323;22;20003;-70
2022/06/16 00:51:32;;;;;;;10.93;4.60;;;;;;;;;;6277301;22;20091;-70
2022/06/16 00:54:15;;;;;;;12.32;4.95;;;;;;;;;;6277367;22;20071;-69
2022/06/16 00:56:41;;;;;;;8.18;4.57;;;;;;;;;;6277389;22;20007;-69
2022/06/16 00:59:07;;;;;;;10.93;4.80;;;;;;;;;;6277247;22;20049;-70
2022/06/16 01:01:33;;;;;;;10.77;5.22;;;;;;;;;;6273617;22;20061;-69
2022/06/16 01:06:43;;;;;;;12.15;5.18;;;;;;;;;;6275818;22;20026;-69
2022/06/16 01:09:10;;;;;;;11.73;5.07;;;;;;;;;;6276154;22;20003;-70
2022/06/16 01:14:58;;;;;;;11.48;5.00;;;;;;;;;;6276172;22;20011;-69
2022/06/16 01:17:29;;;;;;;11.02;5.22;;;;;;;;;;6276473;22;20004;-69
2022/06/16 01:20:00;;;;;;;12.10;5.10;;;;;;;;;;6277237;22;20066;-69
2022/06/16 01:22:48;;;;;;;11.82;5.40;;;;;;;;;;6276966;22;20015;-69
2022/06/16 01:25:25;;;;;;;12.02;4.53;;;;;;;;;;6260085;22;20074;-69
2022/06/16 01:28:09;;;;;;;11.30;5.28;;;;;;;;;;6277244;22;20015;-69
2022/06/16 01:30:43;;;;;;;11.93;5.60;;;;;;;;;;6276334;22;20427;-69
2022/06/16 01:33:08;;;;;;;;;;;;;;;;;;6277624;22;20012;-70
2022/06/16 01:35:40;;;;;;;11.02;4.78;;;;;;;;;;6276835;22;19952;-70
2022/06/16 01:38:28;;;;;;;11.43;4.57;;;;;;;;;;6276688;22;20034;-70
2022/06/16 01:41:07;;;;;;;9.23;5.10;;;;;;;;;;6260001;22;20008;-69
2022/06/16 01:43:39;;;;;;;9.38;4.88;;;;;;;;;;6276776;22;19992;-70
2022/06/16 01:46:15;;;;;;;13.18;5.18;;;;;;;;;;6276704;22;20008;-69
2022/06/16 01:48:41;;;;;;;9.55;4.95;;;;;;;;;;6276498;22;20367;-69
2022/06/16 01:51:21;;;;;;;10.15;5.20;;;;;;;;;;6276855;22;20007;-69
2022/06/16 01:53:50;;;;;;;11.65;5.50;;;;;;;;;;6276363;22;20438;-69
2022/06/16 01:56:17;;;;;;;9.60;5.43;;;;;;;;;;6276937;22;20008;-70
2022/06/16 01:58:47;;;;;;;12.65;5.05;;;;;;;;;;6276993;22;19996;-69
2022/06/16 02:01:14;;;;;;;11.43;5.32;;;;;;;;;;6276619;22;20304;-70
2022/06/16 02:03:45;;;;;;;11.32;5.22;;;;;;;;;;6276392;22;20004;-69
2022/06/16 02:06:12;;;;;;;10.38;5.40;;;;;;;;;;6276777;22;20490;-69
2022/06/16 02:08:39;;;;;;;10.15;5.28;;;;;;;;;;6276622;22;20002;-69
2022/06/16 02:11:12;;;;;;;11.65;5.72;;;;;;;;;;6276785;22;20107;-69
2022/06/16 02:13:41;;;;;;;12.90;5.43;;;;;;;;;;6276039;22;19988;-69
2022/06/16 02:16:10;;;;;;;9.43;5.35;;;;;;;;;;6276737;22;20042;-69
2022/06/16 02:18:37;;;;;;;14.75;5.68;;;;;;;;;;6276519;22;20015;-69
2022/06/16 02:21:17;;;;;;;11.32;5.13;;;;;;;;;;6276763;22;19996;-69
2022/06/16 02:23:44;;;;;;;10.52;5.35;;;;;;;;;;6276357;22;20000;-69
2022/06/16 02:26:09;;;;;;;14.18;5.68;;;;;;;;;;6276462;22;20019;-69
2022/06/16 02:28:45;;;;;;;10.98;5.07;;;;;;;;;;6276945;22;20307;-69
2022/06/16 02:31:20;;;;;;;13.73;5.55;;;;;;;;;;6276538;22;20004;-69
2022/06/16 02:33:54;;;;;;;13.00;5.40;;;;;;;;;;6276642;22;20063;-69
2022/06/16 02:36:28;;;;;;;13.27;5.63;;;;;;;;;;6276383;22;20007;-69
2022/06/16 02:38:53;;;;;;;;;;;;;;;;;;6276968;22;20007;-69
2022/06/16 02:41:31;;;;;;;8.63;4.47;;;;;;;;;;6276702;22;19907;-69
2022/06/16 02:44:02;;;;;;;11.18;5.05;;;;;;;;;;6276469;22;19996;-69
2022/06/16 02:46:46;;;;;;;10.98;5.10;;;;;;;;;;6276404;22;20043;-69
2022/06/16 02:49:29;;;;;;;15.75;5.47;;;;;;;;;;6276315;22;19996;-69
2022/06/16 02:52:05;;;;;;;10.02;5.40;;;;;;;;;;6276545;22;20028;-69
2022/06/16 02:54:47;;;;;;;13.68;5.35;;;;;;;;;;6276290;22;19987;-69
2022/06/16 02:57:30;;;;;;;14.85;5.28;;;;;;;;;;6276539;22;20082;-69
2022/06/16 02:59:57;;;;;;;13.27;5.45;;;;;;;;;;6276425;22;20419;-69
2022/06/16 03:02:24;;;;;;;13.60;5.03;;;;;;;;;;6276356;22;20082;-69
2022/06/16 03:04:50;;;;;;;14.95;5.68;;;;;;;;;;6276442;22;19996;-69
2022/06/16 03:07:16;;;;;;;16.98;5.57;;;;;;;;;;6276590;22;20092;-69
2022/06/16 03:09:41;;;;;;;11.77;5.45;;;;;;;;;;6276091;22;20361;-69
2022/06/16 03:12:07;;;;;;;11.98;5.22;;;;;;;;;;6276774;22;19995;-69
2022/06/16 03:14:33;;;;;;;13.05;5.30;;;;;;;;;;6275898;22;20751;-69
2022/06/16 03:16:58;;;;;;;13.80;4.88;;;;;;;;;;6276454;22;20004;-69
2022/06/16 03:19:24;;;;;;;10.93;5.35;;;;;;;;;;6276185;22;19998;-69
2022/06/16 03:21:49;;;;;;;9.95;4.97;;;;;;;;;;6276467;22;20026;-69
2022/06/16 03:24:15;;;;;;;11.02;5.47;;;;;;;;;;6276049;22;20006;-69
2022/06/16 03:26:40;;;;;;;11.98;5.60;;;;;;;;;;6278119;22;20416;-69
2022/06/16 03:29:05;;;;;;;15.73;6.63;;;;;;;;;;6278213;22;20412;-69
2022/06/16 03:31:31;;;;;;;14.93;5.53;;;;;;;;;;6277978;22;20003;-69
2022/06/16 03:33:56;;;;;;;10.55;5.28;;;;;;;;;;6278186;22;20320;-69
2022/06/16 03:36:21;;;;;;;9.93;5.38;;;;;;;;;;6278157;22;19988;-69
2022/06/16 03:38:47;;;;;;;13.43;5.35;;;;;;;;;;6277486;22;20065;-69
2022/06/16 03:41:12;;;;;;;9.73;5.68;;;;;;;;;;6277815;22;20067;-69
2022/06/16 03:43:38;;;;;;;10.77;5.05;;;;;;;;;;6278097;22;19999;-69
2022/06/16 03:46:03;;;;;;;10.80;5.03;;;;;;;;;;6277753;22;20011;-69
2022/06/16 03:48:29;;;;;;;13.40;5.35;;;;;;;;;;6278003;22;19995;-69
2022/06/16 03:50:54;;;;;;;13.88;5.10;;;;;;;;;;6277978;22;20000;-69
2022/06/16 03:53:19;;;;;;;11.07;5.10;;;;;;;;;;6277879;22;20004;-68
2022/06/16 03:55:44;;;;;;;10.95;4.97;;;;;;;;;;6277897;22;19992;-68
2022/06/16 03:58:10;;;;;;;11.77;5.07;;;;;;;;;;6278045;22;20416;-69
2022/06/16 04:00:36;;;;;;;9.07;4.57;;;;;;;;;;6277538;22;20018;-69
2022/06/16 04:05:45;;;;;;;10.40;4.75;;;;;;;;;;6277290;22;20034;-69
2022/06/16 04:08:10;;;;;;;8.38;4.65;;;;;;;;;;6277580;22;20420;-70
2022/06/16 04:10:36;;;;;;;9.13;4.88;;;;;;;;;;6277605;22;19992;-69
2022/06/16 04:13:01;;;;;;;13.10;4.78;;;;;;;;;;6278000;22;19996;-69
2022/06/16 04:15:26;;;;;;;11.23;4.78;;;;;;;;;;6277597;22;20035;-69
2022/06/16 04:17:52;;;;;;;9.90;4.95;;;;;;;;;;6277828;22;19996;-69
2022/06/16 04:20:17;;;;;;;8.88;4.75;;;;;;;;;;6277648;22;19999;-69
2022/06/16 04:22:43;;;;;;;13.25;4.60;;;;;;;;;;6277633;22;20003;-69
2022/06/16 04:25:12;;;;;;;9.18;4.70;;;;;;;;;;6277618;22;20062;-69
2022/06/16 04:27:37;;;;;;;11.38;4.63;;;;;;;;;;6277560;22;20031;-69
2022/06/16 04:30:03;;;;;;;8.93;4.97;;;;;;;;;;6277169;22;20061;-69
2022/06/16 04:32:28;;;;;;;9.68;4.32;;;;;;;;;;6277623;22;19995;-69
2022/06/16 04:34:53;;;;;;;10.07;4.63;;;;;;;;;;6277450;22;19995;-69
2022/06/16 04:37:19;;;;;;;6.50;4.10;;;;;;;;;;6277347;22;20053;-69
2022/06/16 04:39:44;;;;;;;13.25;4.65;;;;;;;;;;6277059;22;20137;-69
2022/06/16 04:42:09;;;;;;;11.73;4.25;;;;;;;;;;6277585;22;20093;-69
2022/06/16 04:44:34;;;;;;;8.63;4.05;;;;;;;;;;6277379;22;20065;-69
2022/06/16 04:47:02;;;;;;;6.47;3.30;;;;;;;;;;6277286;22;20008;-69
2022/06/16 04:49:27;;;;;;;7.32;3.08;;;;;;;;;;6277543;22;20281;-69
2022/06/16 04:51:52;;;;;;;4.80;2.78;;;;;;;;;;6277277;22;20050;-69
2022/06/16 04:54:18;;;;;;;6.25;3.22;;;;;;;;;;6277445;22;20863;-69
2022/06/16 04:56:43;;;;;;;4.80;2.58;;;;;;;;;;6277389;22;20312;-69
2022/06/16 04:59:09;;;;;;;4.80;2.55;;;;;;;;;;6277195;22;20101;-69
2022/06/16 05:01:35;;;;;;;10.25;3.10;;;;;;;;;;6276671;22;20423;-70
2022/06/16 05:04:00;;;;;;;5.53;2.58;;;;;;;;;;6277320;22;19999;-70
2022/06/16 05:06:25;;;;;;;5.15;2.72;;;;;;;;;;6277041;22;20042;-70
2022/06/16 05:08:50;;;;;;;4.65;2.58;;;;;;;;;;6277307;22;19992;-69
2022/06/16 05:11:16;;;;;;;5.57;2.58;;;;;;;;;;6277101;22;19992;-70
2022/06/16 05:13:41;;;;;;;9.07;2.00;;;;;;;;;;6250089;22;20004;-70
2022/06/16 05:16:06;;;;;;;4.82;2.10;;;;;;;;;;6277216;22;20004;-69
2022/06/16 05:18:31;;;;;;;3.95;2.20;;;;;;;;;;6277187;22;20320;-70
2022/06/16 05:21:04;;;;;;;3.95;1.92;;;;;;;;;;6277402;22;20029;-70
2022/06/16 05:23:29;;;;;;;3.78;1.85;;;;;;;;;;6277105;22;20006;-70
2022/06/16 05:25:54;;;;;;;7.32;2.00;;;;;;;;;;6276915;22;20031;-70
2022/06/16 05:28:20;;;;;;;5.20;1.92;;;;;;;;;;6277042;22;20008;-70
2022/06/16 05:30:45;;;;;;;2.53;1.67;;;;;;;;;;6276995;22;20014;-70
2022/06/16 05:33:10;;;;;;;2.08;1.38;;;;;;;;;;6277137;22;19995;-70
2022/06/16 05:35:35;;;;;;;3.13;1.83;;;;;;;;;;6276769;22;20008;-70
2022/06/16 05:38:01;;;;;;;3.25;1.80;;;;;;;;;;6276779;22;19991;-70
2022/06/16 05:40:26;;;;;;;3.50;1.63;;;;;;;;;;6276953;22;20029;-70
2022/06/16 05:42:51;;;;;;;4.38;1.70;;;;;;;;;;6276941;22;20083;-70
2022/06/16 05:45:16;;;;;;;3.50;1.58;;;;;;;;;;6276952;22;19996;-70
2022/06/16 05:47:42;;;;;;;3.78;1.38;;;;;;;;;;6276533;22;20003;-70
2022/06/16 05:50:07;;;;;;;2.63;1.30;;;;;;;;;;6276933;22;20087;-71
2022/06/16 05:52:33;;;;;;;3.55;1.40;;;;;;;;;;6276386;22;20453;-71
2022/06/16 05:54:58;;;;;;;2.33;1.20;;;;;;;;;;6276845;22;20002;-71
2022/06/16 05:57:23;;;;;;;2.97;1.45;;;;;;;;;;6276853;22;20404;-71
2022/06/16 05:59:48;;;;;;;3.58;1.58;;;;;;;;;;6276291;22;20035;-71
2022/06/16 06:02:15;;;;;;;3.42;1.60;;;;;;;;;;6276719;22;19987;-72
2022/06/16 06:04:41;;;;;;;2.53;1.40;;;;;;;;;;6276615;22;20007;-70
2022/06/16 06:07:06;;;;;;;2.17;1.25;;;;;;;;;;6276496;22;20015;-72
2022/06/16 06:17:45;;;;;;;6.97;2.10;;;;;;;;;;6276338;22;20406;-71
2022/06/16 06:20:10;;;;;;;4.32;1.50;;;;;;;;;;6276645;22;20003;-72
2022/06/16 06:22:36;;;;;;;3.03;1.42;;;;;;;;;;6276674;22;20367;-72
2022/06/16 06:25:01;;;;;;;2.78;1.40;;;;;;;;;;6276639;22;20066;-71
2022/06/16 06:27:37;;;;;;;3.63;1.65;;;;;;;;;;6276355;22;20003;-73
2022/06/16 06:30:05;;;;;;;6.38;1.50;;;;;;;;;;6276528;22;20008;-72
2022/06/16 06:32:30;;;;;;;2.88;1.70;;;;;;;;;;6276344;22;19996;-72
2022/06/16 06:34:56;;;;;;;3.75;1.65;;;;;;;;;;6276709;22;20004;-70
2022/06/16 06:37:22;;;;;;;3.92;1.55;;;;;;;;;;6277028;22;20434;-70
2022/06/16 06:39:48;;;;;;;4.95;1.38;;;;;;;;;;6276968;22;20011;-72
2022/06/16 06:42:14;;;;;;;3.70;1.40;;;;;;;;;;6276410;22;20038;-70
2022/06/16 06:44:39;;;;;;;2.78;1.45;;;;;;;;;;6276573;22;20015;-70
2022/06/16 06:47:05;;;;;;;5.32;1.45;;;;;;;;;;6276622;22;20003;-70
2022/06/16 06:49:30;;;;;;;2.47;1.40;;;;;;;;;;6276363;22;20428;-70
2022/06/16 06:51:55;;;;;;;2.85;1.60;;;;;;;;;;6276536;22;20012;-70
2022/06/16 06:54:21;;;;;;;4.53;1.70;;;;;;;;;;6276526;22;19992;-70
2022/06/16 06:56:47;;;;;;;3.17;1.60;;;;;;;;;;6276462;22;20395;-71
2022/06/16 06:59:18;;;;;;;3.25;1.50;;;;;;;;;;6276385;22;20000;-70
2022/06/16 07:01:44;;;;;;;5.80;2.00;;;;;;;;;;6278047;22;19988;-71
2022/06/16 07:04:09;;;;;;;4.60;1.60;;;;;;;;;;6278118;22;20007;-70
2022/06/16 07:06:34;;;;;;;4.17;1.67;;;;;;;;;;6278197;22;20083;-70
2022/06/16 07:08:59;;;;;;;4.40;1.73;;;;;;;;;;6278668;22;20201;-71
2022/06/16 07:11:25;;;;;;;5.45;1.80;;;;;;;;;;6277894;22;20010;-70
2022/06/16 07:13:50;;;;;;;3.78;1.70;;;;;;;;;;6278030;22;20004;-70
2022/06/16 07:16:16;;;;;;;5.05;1.85;;;;;;;;;;6268014;22;19995;-71
2022/06/16 07:18:41;;;;;;;4.82;1.70;;;;;;;;;;6278194;22;20011;-71
2022/06/16 07:21:06;;;;;;;3.67;1.70;;;;;;;;;;6277614;22;20004;-70
2022/06/16 07:23:32;;;;;;;3.97;1.63;;;;;;;;;;6277643;22;20071;-71
2022/06/16 07:25:58;;;;;;;6.00;1.80;;;;;;;;;;6277715;22;20008;-71
2022/06/16 07:28:23;;;;;;;5.05;1.88;;;;;;;;;;6278107;22;20004;-71
2022/06/16 07:30:49;;;;;;;5.90;1.70;;;;;;;;;;6277016;22;19992;-71
2022/06/16 07:33:14;;;;;;;4.33;1.83;;;;;;;;;;6277839;22;20007;-71
2022/06/16 07:35:41;;;;;;;4.78;1.80;;;;;;;;;;6278242;22;20221;-71
2022/06/16 07:38:07;;;;;;;4.72;2.08;;;;;;;;;;6277329;22;20404;-71
2022/06/16 07:40:32;;;;;;;5.03;1.60;;;;;;;;;;6277992;22;20000;-72
2022/06/16 07:42:57;;;;;;;3.10;1.80;;;;;;;;;;6276729;22;20000;-71
2022/06/16 07:45:26;;;;;;;7.38;1.85;;;;;;;;;;6277094;22;19995;-71
2022/06/16 07:47:52;;;;;;;3.78;1.58;;;;;;;;;;6277853;22;20016;-71
2022/06/16 07:50:18;;;;;;;5.80;2.00;;;;;;;;;;6277988;22;20014;-71
2022/06/16 07:52:43;;;;;;;3.55;1.60;;;;;;;;;;6277268;22;20403;-71
2022/06/16 07:55:10;;;;;;;5.65;1.95;;;;;;;;;;6276822;22;20011;-71
2022/06/16 07:57:45;;;;;;;5.43;1.70;;;;;;;;;;6277916;22;20000;-71
2022/06/16 08:00:11;;;;;;;3.95;1.83;;;;;;;;;;6277736;22;20059;-71
2022/06/16 08:02:37;;;;;;;7.35;2.08;;;;;;;;;;6276883;22;20014;-71
2022/06/16 08:05:02;;;;;;;4.80;1.77;;;;;;;;;;6277770;22;20016;-71
2022/06/16 08:07:28;;;;;;;6.03;2.00;;;;;;;;;;6276943;22;20008;-71
2022/06/16 08:09:53;;;;;;;5.20;1.67;;;;;;;;;;6277527;22;20008;-71
2022/06/16 08:12:20;;;;;;;9.27;2.07;;;;;;;;;;6278001;22;19996;-71
2022/06/16 08:14:46;;;;;;;6.35;2.13;;;;;;;;;;6277474;22;20776;-71
2022/06/16 08:17:21;;;;;;;8.75;2.10;;;;;;;;;;6277340;22;20428;-71
2022/06/16 08:19:47;;;;;;;5.20;1.80;;;;;;;;;;6277344;22;19992;-71
2022/06/16 08:22:12;;;;;;;5.47;2.25;;;;;;;;;;6277525;22;20058;-71
2022/06/16 08:24:38;;;;;;;6.50;2.20;;;;;;;;;;6277530;22;20364;-71
2022/06/16 08:27:03;;;;;;;4.20;1.80;;;;;;;;;;6270234;22;20115;-72
2022/06/16 08:29:28;;;;;;;7.85;1.90;;;;;;;;;;6269531;22;20043;-71
2022/06/16 08:31:55;;;;;;;7.45;2.28;;;;;;;;;;6244270;22;20579;-72
2022/06/16 08:34:20;;;;;;;4.45;1.90;;;;;;;;;;6272630;22;20003;-71
2022/06/16 08:36:45;;;;;;;6.40;2.00;;;;;;;;;;6272507;22;20007;-71
2022/06/16 08:39:11;;;;;;;7.07;1.90;;;;;;;;;;6274384;22;20008;-71
2022/06/16 08:41:36;;;;;;;6.73;1.93;;;;;;;;;;6272811;22;19999;-71
2022/06/16 08:44:07;;;;;;;6.55;2.35;;;;;;;;;;6273453;22;20279;-71
2022/06/16 08:46:35;;;;;;;6.78;2.00;;;;;;;;;;6266502;22;20026;-71
2022/06/16 08:49:03;;;;;;;5.93;2.08;;;;;;;;;;6267424;22;20000;-71
2022/06/16 08:51:39;;;;;;;5.05;2.22;;;;;;;;;;6271879;22;20483;-70
2022/06/16 08:54:17;;;;;;;7.45;2.20;;;;;;;;;;6272711;22;19992;-71
2022/06/16 08:56:58;;;;;;;4.72;2.40;;;;;;;;;;6272620;22;20000;-71
2022/06/16 08:59:24;;;;;;;7.15;2.10;;;;;;;;;;6270661;22;19996;-71
2022/06/16 09:01:59;;;;;;;6.72;2.40;;;;;;;;;;6272300;22;20435;-71
2022/06/16 09:04:30;;;;;;;3.55;1.90;;;;;;;;;;6272432;22;19992;-71
2022/06/16 09:06:55;;;;;;;4.70;2.20;;;;;;;;;;6270907;22;20047;-71
2022/06/16 09:12:30;;;;;;;7.20;2.40;;;;;;;;;;6271642;22;20742;-72
2022/06/16 09:15:14;;;;;;;7.00;2.30;;;;;;;;;;6272371;22;20004;-72
2022/06/16 09:17:51;;;;;;;9.25;2.10;;;;;;;;;;6268066;22;20007;-71
2022/06/16 09:20:35;;;;;;;8.75;2.58;;;;;;;;;;6271227;22;20007;-72
2022/06/16 09:23:19;;;;;;;9.55;2.20;;;;;;;;;;6272562;22;20086;-71
2022/06/16 09:25:48;;;;;;;8.18;2.08;;;;;;;;;;6272046;22;20007;-72
2022/06/16 09:28:39;;;;;;;5.07;2.30;;;;;;;;;;6271882;22;20007;-71
2022/06/16 09:31:08;;;;;;;9.38;2.67;;;;;;;;;;6263927;22;20011;-72
2022/06/16 09:33:35;;;;;;;8.65;2.55;;;;;;;;;;6272040;22;20010;-72
2022/06/16 09:36:30;;;;;;;7.53;2.60;;;;;;;;;;6271404;22;20004;-72
2022/06/16 09:39:05;;;;;;;5.97;2.70;;;;;;;;;;6244472;22;20015;-72
2022/06/16 09:44:29;;;;;;;7.30;3.00;;;;;;;;;;6271360;22;20018;-72
2022/06/16 09:46:56;;;;;;;6.40;2.95;;;;;;;;;;6271712;22;20007;-71
2022/06/16 09:49:23;;;;;;;10.68;3.15;;;;;;;;;;6270770;22;20024;-72
2022/06/16 09:51:55;;;;;;;4.38;2.33;;;;;;;;;;6271001;22;19991;-71
2022/06/16 09:54:31;;;;;;;10.57;3.42;;;;;;;;;;6271939;22;20023;-71
2022/06/16 09:57:02;;;;;;;12.77;3.40;;;;;;;;;;6270702;22;20022;-72
2022/06/16 09:59:31;;;;;;;6.38;2.78;;;;;;;;;;6270699;22;20373;-72
2022/06/16 10:01:58;;;;;;;8.05;3.38;;;;;;;;;;6264692;22;19992;-72
2022/06/16 10:04:23;;;;;;;9.45;3.90;;;;;;;;;;6271488;22;20521;-72
2022/06/16 10:06:54;;;;;;;8.18;3.10;;;;;;;;;;6268661;22;20008;-72
2022/06/16 10:09:26;;;;;;;9.38;3.80;;;;;;;;;;6271146;22;20000;-71
2022/06/16 10:11:57;;;;;;;8.77;3.93;;;;;;;;;;6272259;22;20004;-71
2022/06/16 10:14:41;;;;;;;10.43;4.10;;;;;;;;;;6272103;22;20336;-71
2022/06/16 10:17:10;;;;;;;8.18;3.92;;;;;;;;;;6271331;22;20378;-71
2022/06/16 10:19:38;;;;;;;7.70;3.65;;;;;;;;;;6270843;22;20035;-71
2022/06/16 10:22:04;;;;;;;11.52;4.90;;;;;;;;;;6270877;22;19999;-71
2022/06/16 10:24:36;;;;;;;8.85;4.20;;;;;;;;;;6271532;22;20016;-71
2022/06/16 10:27:01;;;;;;;11.33;3.87;;;;;;;;;;6272409;22;20007;-71
2022/06/16 10:29:29;;;;;;;8.20;3.85;;;;;;;;;;6272096;22;20256;-71
2022/06/16 10:31:56;;;;;;;5.72;3.55;;;;;;;;;;6272181;22;20078;-71
2022/06/16 10:34:28;;;;;;;7.60;3.72;;;;;;;;;;6262960;22;20008;-71
2022/06/16 10:37:19;;;;;;;8.47;3.50;;;;;;;;;;6271433;22;20050;-73
2022/06/16 10:39:58;;;;;;;8.35;3.65;;;;;;;;;;6267115;22;20057;-72
2022/06/16 10:42:23;;;;;;;5.93;3.10;;;;;;;;;;6274159;22;20078;-72
2022/06/16 10:44:50;;;;;;;7.18;3.40;;;;;;;;;;6271268;22;20035;-72
2022/06/16 10:47:25;;;;;;;7.15;3.47;;;;;;;;;;6274016;22;21081;-72
2022/06/16 10:49:51;;;;;;;9.77;3.78;;;;;;;;;;6274570;22;20003;-72
2022/06/16 10:52:38;;;;;;;8.77;3.80;;;;;;;;;;6272194;22;20022;-72
2022/06/16 10:55:10;;;;;;;9.32;3.65;;;;;;;;;;6273153;22;20008;-73
2022/06/16 10:57:41;;;;;;;6.32;3.25;;;;;;;;;;6273433;22;20077;-73
2022/06/16 11:00:11;;;;;;;9.30;3.47;;;;;;;;;;6273626;22;19999;-73
2022/06/16 11:02:51;;;;;;;14.05;3.28;;;;;;;;;;6272316;22;20515;-72
2022/06/16 11:05:17;;;;;;;7.82;3.45;;;;;;;;;;6271074;22;20007;-72
2022/06/16 11:07:43;;;;;;;8.52;3.20;;;;;;;;;;6272152;22;20004;-72
2022/06/16 11:10:10;;;;;;;10.45;3.53;;;;;;;;;;6273471;22;19995;-73
2022/06/16 11:12:37;;;;;;;10.05;3.40;;;;;;;;;;6272783;22;20450;-72
2022/06/16 11:15:23;;;;;;;5.15;3.22;;;;;;;;;;6271527;22;19999;-72
2022/06/16 11:17:54;;;;;;;7.85;3.00;;;;;;;;;;6273261;22;20316;-72
2022/06/16 11:20:19;;;;;;;7.45;3.10;;;;;;;;;;6273978;22;20497;-72
2022/06/16 11:22:46;;;;;;;8.20;2.93;;;;;;;;;;6271195;22;19995;-72
2022/06/16 11:25:23;;;;;;;7.18;3.15;;;;;;;;;;6274261;22;20290;-72
2022/06/16 11:27:56;;;;;;;7.88;3.35;;;;;;;;;;6272447;22;20039;-72
2022/06/16 11:30:31;;;;;;;8.07;2.92;;;;;;;;;;6273534;22;20094;-72
2022/06/16 11:32:56;;;;;;;5.78;2.33;;;;;;;;;;6273119;22;20013;-72
2022/06/16 11:35:25;;;;;;;10.98;2.97;;;;;;;;;;6271366;22;20067;-72
2022/06/16 11:37:56;;;;;;;8.93;2.78;;;;;;;;;;6273030;22;20081;-72
2022/06/16 11:40:28;;;;;;;6.13;2.60;;;;;;;;;;6273552;22;20006;-72
2022/06/16 11:43:11;;;;;;;13.00;3.20;;;;;;;;;;6271424;22;20012;-72
2022/06/16 11:45:44;;;;;;;13.30;2.78;;;;;;;;;;6272317;22;20026;-72
2022/06/16 11:48:27;;;;;;;5.82;2.17;;;;;;;;;;6272694;22;20004;-72
2022/06/16 11:51:10;;;;;;;4.67;2.10;;;;;;;;;;6273894;22;20015;-72
2022/06/16 11:53:54;;;;;;;6.25;2.30;;;;;;;;;;6270428;22;19995;-72
2022/06/16 11:56:35;;;;;;;6.30;2.13;;;;;;;;;;6273049;22;20039;-72
2022/06/16 11:59:07;;;;;;;6.43;1.98;;;;;;;;;;6271656;22;20493;-72
2022/06/16 12:01:35;;;;;;;4.75;2.30;;;;;;;;;;6267504;22;20339;-73
2022/06/16 12:04:13;;;;;;;9.75;2.30;;;;;;;;;;6272924;22;20007;-72
2022/06/16 12:06:44;;;;;;;6.05;2.30;;;;;;;;;;6272466;22;20004;-72
2022/06/16 12:09:28;;;;;;;3.40;2.00;;;;;;;;;;6272464;22;20026;-72
2022/06/16 12:12:22;;;;;;;5.70;1.92;;;;;;;;;;6272991;22;20007;-72
2022/06/16 12:14:50;;;;;;;6.90;1.98;;;;;;;;;;6162585;22;20038;-72
2022/06/16 12:17:45;;;;;;;8.02;2.08;;;;;;;;;;6271380;22;20016;-72
2022/06/16 12:20:17;;;;;;;7.82;2.17;;;;;;;;;;6241336;22;20003;-72
2022/06/16 12:22:47;;;;;;;6.57;2.10;;;;;;;;;;6272647;22;20014;-72
2022/06/16 12:25:30;;;;;;;5.97;1.90;;;;;;;;;;6272395;22;20420;-73
2022/06/16 12:27:56;;;;;;;7.55;2.38;;;;;;;;;;6271794;22;20033;-72
2022/06/16 12:30:32;;;;;;;10.00;2.03;;;;;;;;;;6273280;22;20075;-72
2022/06/16 12:32:57;;;;;;;6.93;2.10;;;;;;;;;;6272921;22;20081;-72
2022/06/16 12:35:22;;;;;;;6.47;1.93;;;;;;;;;;6271730;22;19991;-72
2022/06/16 12:37:50;;;;;;;6.32;1.98;;;;;;;;;;6272383;22;20280;-72
2022/06/16 12:40:18;;;;;;;5.80;1.50;;;;;;;;;;6270878;22;20004;-72
2022/06/16 12:42:46;;;;;;;8.20;2.20;;;;;;;;;;6271383;22;19996;-72
2022/06/16 12:45:16;;;;;;;6.97;2.13;;;;;;;;;;6267209;22;20305;-72
2022/06/16 12:47:46;;;;;;;6.53;2.08;;;;;;;;;;6271512;22;20165;-72
2022/06/16 12:50:30;;;;;;;8.65;2.00;;;;;;;;;;6271525;22;20332;-72
2022/06/16 12:53:14;;;;;;;7.57;1.88;;;;;;;;;;6271952;22;20004;-72
2022/06/16 12:55:49;;;;;;;5.30;1.50;;;;;;;;;;6271844;22;20455;-72
2022/06/16 12:58:22;;;;;;;7.00;1.98;;;;;;;;;;6272144;22;20035;-72
2022/06/16 13:01:08;;;;;;;6.88;1.50;;;;;;;;;;6271589;22;20069;-72
2022/06/16 13:03:39;;;;;;;7.63;1.75;;;;;;;;;;6266491;22;20012;-72
2022/06/16 13:06:06;;;;;;;3.85;1.42;;;;;;;;;;6271427;22;19999;-72
2022/06/16 13:08:34;;;;;;;9.38;1.70;;;;;;;;;;6273052;22;20011;-72
2022/06/16 13:11:01;;;;;;;6.07;1.45;;;;;;;;;;6272591;22;20035;-72
2022/06/16 13:13:38;;;;;;;3.47;1.45;;;;;;;;;;6270121;22;20035;-72
2022/06/16 13:16:05;;;;;;;6.80;1.40;;;;;;;;;;6271585;22;20332;-72
2022/06/16 13:18:40;;;;;;;5.50;1.20;;;;;;;;;;6242605;22;20319;-72
2022/06/16 13:21:06;;;;;;;10.90;1.40;;;;;;;;;;6272813;22;20008;-72
2022/06/16 13:23:33;;;;;;;2.63;1.10;;;;;;;;;;6272015;22;20045;-72
2022/06/16 13:26:18;;;;;;;3.42;1.17;;;;;;;;;;6271979;22;20055;-72
2022/06/16 13:28:49;;;;;;;4.80;1.42;;;;;;;;;;6269640;22;20000;-72
2022/06/16 13:31:22;;;;;;;7.28;2.05;;;;;;;;;;6271538;22;20007;-72
2022/06/16 13:34:08;;;;;;;5.03;1.33;;;;;;;;;;6271752;22;20087;-72
2022/06/16 13:36:33;;;;;;;4.97;1.48;;;;;;;;;;6248930;22;20011;-72
2022/06/16 13:38:59;;;;;;;4.22;1.40;;;;;;;;;;6271290;22;20012;-72
2022/06/16 13:41:30;;;;;;;6.00;1.67;;;;;;;;;;6271595;22;20031;-72
2022/06/16 13:44:19;;;;;;;5.13;1.90;;;;;;;;;;6272104;22;20011;-73
2022/06/16 13:47:10;;;;;;;5.95;1.70;;;;;;;;;;6255085;22;20018;-72
2022/06/16 13:49:47;;;;;;;6.00;1.60;;;;;;;;;;6270688;22;20046;-72
2022/06/16 13:52:13;;;;;;;6.32;1.83;;;;;;;;;;6268928;22;20090;-72
2022/06/16 13:54:38;;;;;;;4.90;1.50;;;;;;;;;;6271766;22;20377;-72
2022/06/16 13:57:17;;;;;;;3.33;1.40;;;;;;;;;;6269405;22;20731;-72
2022/06/16 13:59:44;;;;;;;6.35;1.60;;;;;;;;;;6272465;22;20004;-72
2022/06/16 14:02:11;;;;;;;8.77;1.95;;;;;;;;;;6272332;22;20439;-72
2022/06/16 14:04:45;;;;;;;5.03;1.70;;;;;;;;;;6272182;22;19999;-72
2022/06/16 14:07:13;;;;;;;4.80;1.65;;;;;;;;;;6271928;22;20007;-72
2022/06/16 14:09:59;;;;;;;5.03;1.58;;;;;;;;;;6266242;22;20011;-72
2022/06/16 14:12:45;;;;;;;6.97;2.47;;;;;;;;;;6270369;22;20079;-72
2022/06/16 14:15:11;;;;;;;4.20;1.40;;;;;;;;;;6271140;22;20305;-72
2022/06/16 14:17:56;;;;;;;10.95;2.00;;;;;;;;;;6270750;22;20436;-72
2022/06/16 14:20:26;;;;;;;4.93;1.85;;;;;;;;;;6271282;22;20112;-72
2022/06/16 14:22:54;;;;;;;7.88;2.15;;;;;;;;;;6270469;22;20003;-72
2022/06/16 14:25:22;;;;;;;5.43;1.95;;;;;;;;;;6271310;22;20014;-72
2022/06/16 14:27:49;;;;;;;3.92;1.50;;;;;;;;;;6270526;22;20003;-72
2022/06/16 14:30:19;;;;;;;6.65;1.75;;;;;;;;;;6271022;22;20000;-72
2022/06/16 14:32:47;;;;;;;7.95;1.67;;;;;;;;;;6271111;22;20008;-72
2022/06/16 14:35:35;;;;;;;6.85;2.03;;;;;;;;;;6271438;22;19992;-72
2022/06/16 14:38:00;;;;;;;6.85;1.83;;;;;;;;;;6253557;22;20053;-72
2022/06/16 14:40:41;;;;;;;5.93;1.47;;;;;;;;;;6270023;22;20007;-72
2022/06/16 14:43:09;;;;;;;4.53;2.03;;;;;;;;;;6270277;22;20248;-72
2022/06/16 14:45:39;;;;;;;3.05;1.60;;;;;;;;;;6270574;22;20011;-72
2022/06/16 14:48:04;;;;;;;4.05;1.75;;;;;;;;;;6270595;22;20010;-72
2022/06/16 14:50:32;;;;;;;9.43;1.77;;;;;;;;;;6270815;22;20074;-72
2022/06/16 14:53:05;;;;;;;7.50;1.80;;;;;;;;;;6265863;22;20278;-72
2022/06/16 14:55:32;;;;;;;6.53;2.20;;;;;;;;;;6271129;22;19996;-72
2022/06/16 14:58:02;;;;;;;8.93;2.10;;;;;;;;;;6270319;22;20003;-72
2022/06/16 15:00:29;;;;;;;7.95;1.83;;;;;;;;;;6270549;22;20078;-72
2022/06/16 15:02:57;;;;;;;6.80;2.13;;;;;;;;;;6271241;22;20003;-72
2022/06/16 15:05:23;;;;;;;5.47;1.85;;;;;;;;;;6271489;22;20432;-72
2022/06/16 15:07:49;;;;;;;6.78;1.90;;;;;;;;;;6270847;22;20008;-72
2022/06/16 15:10:16;;;;;;;3.95;1.83;;;;;;;;;;6270690;22;20050;-72
2022/06/16 15:12:42;;;;;;;5.32;1.90;;;;;;;;;;6267634;22;20008;-72
2022/06/16 15:15:08;;;;;;;6.10;1.60;;;;;;;;;;6270661;22;19996;-72
2022/06/16 15:20:19;;;;;;;6.28;1.70;;;;;;;;;;6270537;22;20097;-72